createdAt,value
2022-09-02T00:01:24.878Z,5.47
2022-09-02T00:03:52.971Z,6.20
2022-09-02T00:06:19.861Z,8.55
2022-09-02T00:08:47.120Z,5.85
2022-09-02T00:11:18.893Z,5.20
2022-09-02T00:13:46.364Z,5.38
2022-09-02T00:16:14.139Z,4.72
2022-09-02T00:18:44.933Z,5.10
2022-09-02T00:21:14.364Z,5.55
2022-09-02T00:23:42.865Z,4.45
2022-09-02T00:26:09.992Z,4.95
2022-09-02T00:28:37.105Z,4.60
2022-09-02T00:31:04.218Z,4.95
2022-09-02T00:33:31.779Z,5.82
2022-09-02T00:36:01.028Z,4.32
2022-09-02T00:38:29.108Z,4.82
2022-09-02T00:40:55.996Z,5.25
2022-09-02T00:43:43.961Z,5.03
2022-09-02T00:46:12.288Z,4.55
2022-09-02T00:48:43.511Z,4.97
2022-09-02T00:51:11.981Z,4.53
2022-09-02T00:53:41.330Z,5.18
2022-09-02T00:56:13.217Z,5.00
2022-09-02T00:58:43.061Z,4.47
2022-09-02T01:01:11.819Z,5.30
2022-09-02T01:03:41.259Z,4.90
2022-09-02T01:06:10.555Z,5.22
2022-09-02T01:08:39.282Z,5.53
2022-09-02T01:11:06.859Z,5.72
2022-09-02T01:13:40.391Z,6.15
2022-09-02T01:16:17.058Z,7.18
2022-09-02T01:18:49.732Z,5.47
2022-09-02T01:21:17.678Z,6.30
2022-09-02T01:23:45.914Z,6.47
2022-09-02T01:26:13.098Z,5.80
2022-09-02T01:28:40.180Z,6.25
2022-09-02T01:31:07.328Z,6.13
2022-09-02T01:33:34.580Z,7.07
2022-09-02T01:36:04.265Z,7.75
2022-09-02T01:38:32.236Z,6.60
2022-09-02T01:40:59.164Z,6.90
2022-09-02T01:43:28.392Z,6.10
2022-09-02T01:45:57.732Z,7.47
2022-09-02T01:48:25.010Z,7.00
2022-09-02T01:50:58.149Z,7.20
2022-09-02T01:53:25.256Z,6.60
2022-09-02T01:55:52.460Z,7.03
2022-09-02T01:58:20.082Z,6.72
2022-09-02T02:00:47.695Z,6.10
2022-09-02T02:03:15.157Z,5.95
2022-09-02T02:05:42.286Z,5.82
2022-09-02T02:08:09.503Z,5.65
2022-09-02T02:10:37.014Z,5.60
2022-09-02T02:13:04.007Z,5.80
2022-09-02T02:17:56.663Z,6.65
2022-09-02T02:20:23.581Z,6.07
2022-09-02T02:22:50.449Z,6.00
2022-09-02T02:25:18.833Z,6.55
2022-09-02T02:27:45.849Z,5.72
2022-09-02T02:30:15.433Z,5.53
2022-09-02T02:32:43.305Z,5.90
2022-09-02T02:35:11.424Z,5.57
2022-09-02T02:37:38.304Z,5.95
2022-09-02T02:40:07.007Z,6.07
2022-09-02T02:42:35.537Z,6.80
2022-09-02T02:45:03.353Z,6.15
2022-09-02T02:47:30.171Z,6.20
2022-09-02T02:49:57.077Z,6.38
2022-09-02T02:52:24.116Z,7.22
2022-09-02T02:54:51.037Z,7.53
2022-09-02T02:57:17.887Z,9.57
2022-09-02T02:59:44.641Z,11.57
2022-09-02T03:02:11.673Z,11.02
2022-09-02T03:04:39.979Z,12.50
2022-09-02T03:07:07.308Z,13.90
2022-09-02T03:09:34.399Z,13.73
2022-09-02T03:12:01.437Z,13.80
2022-09-02T03:14:28.385Z,16.05
2022-09-02T03:16:55.255Z,16.08
2022-09-02T03:19:22.146Z,17.23
2022-09-02T03:21:49.117Z,17.17
2022-09-02T03:24:15.938Z,18.52
2022-09-02T03:26:43.660Z,19.70
2022-09-02T03:29:10.595Z,19.50
2022-09-02T03:31:37.847Z,22.08
2022-09-02T03:34:05.207Z,23.60
2022-09-02T03:36:38.829Z,25.23
2022-09-02T03:39:09.694Z,25.25
2022-09-02T03:41:37.191Z,27.70
2022-09-02T03:44:05.454Z,30.40
2022-09-02T03:46:32.276Z,30.98
2022-09-02T03:48:59.147Z,32.13
2022-09-02T03:51:27.241Z,33.88
2022-09-02T03:53:54.551Z,37.13
2022-09-02T03:56:22.103Z,40.00
2022-09-02T03:58:51.519Z,40.50
2022-09-02T04:01:28.989Z,45.17
2022-09-02T04:04:02.153Z,43.50
2022-09-02T04:06:32.456Z,45.42
2022-09-02T04:08:59.829Z,46.38
2022-09-02T04:11:26.848Z,50.38
2022-09-02T04:13:54.023Z,53.63
2022-09-02T04:16:28.894Z,53.95
2022-09-02T04:18:58.375Z,57.65
2022-09-02T04:21:26.113Z,58.60
2022-09-02T04:23:53.071Z,61.90
2022-09-02T04:26:21.675Z,59.50
2022-09-02T04:28:50.002Z,59.85
2022-09-02T04:31:18.913Z,56.58
2022-09-02T04:33:46.334Z,53.42
2022-09-02T04:36:15.759Z,53.63
2022-09-02T04:38:43.250Z,48.97
2022-09-02T04:41:16.535Z,46.45
2022-09-02T04:43:43.990Z,47.28
2022-09-02T04:46:13.716Z,43.28
2022-09-02T04:48:44.125Z,43.92
2022-09-02T04:51:14.746Z,41.63
2022-09-02T04:53:42.425Z,41.22
2022-09-02T04:56:11.277Z,39.03
2022-09-02T04:58:38.909Z,38.63
2022-09-02T05:01:17.719Z,37.67
2022-09-02T05:03:45.623Z,36.42
2022-09-02T05:06:19.659Z,34.20
2022-09-02T05:08:48.071Z,35.20
2022-09-02T05:11:18.548Z,34.33
2022-09-02T05:13:51.628Z,31.98
2022-09-02T05:16:21.376Z,33.67
2022-09-02T05:18:49.354Z,32.65
2022-09-02T05:21:16.597Z,33.55
2022-09-02T05:23:43.744Z,31.92
2022-09-02T05:26:13.171Z,32.55
2022-09-02T05:28:41.725Z,34.10
2022-09-02T05:31:12.780Z,35.42
2022-09-02T05:33:42.152Z,35.15
2022-09-02T05:36:12.571Z,34.63
2022-09-02T05:38:43.571Z,35.53
2022-09-02T05:41:14.645Z,37.70
2022-09-02T05:43:44.703Z,37.50
2022-09-02T05:46:17.522Z,42.58
2022-09-02T05:49:04.995Z,42.33
2022-09-02T05:51:33.621Z,42.28
2022-09-02T05:54:01.551Z,40.15
2022-09-02T05:56:28.716Z,38.60
2022-09-02T05:58:57.344Z,38.25
2022-09-02T06:01:24.636Z,27.35
2022-09-02T06:03:52.346Z,25.70
2022-09-02T06:06:22.995Z,23.35
2022-09-02T06:08:51.154Z,22.17
2022-09-02T06:11:18.455Z,19.13
2022-09-02T06:13:45.284Z,16.05
2022-09-02T06:16:17.060Z,16.95
2022-09-02T06:18:46.877Z,15.27
2022-09-02T06:21:14.786Z,13.88
2022-09-02T06:23:42.233Z,13.02
2022-09-02T06:26:11.837Z,11.45
2022-09-02T06:28:38.693Z,12.40
2022-09-02T06:31:11.702Z,13.48
2022-09-02T06:33:38.858Z,13.25
2022-09-02T06:36:08.513Z,14.35
2022-09-02T06:38:46.031Z,13.88
2022-09-02T06:41:23.814Z,13.40
2022-09-02T06:43:51.232Z,11.95
2022-09-02T06:46:22.307Z,10.88
2022-09-02T06:48:50.189Z,10.57
2022-09-02T06:51:38.505Z,11.23
2022-09-02T06:54:07.364Z,9.82
2022-09-02T06:56:35.037Z,8.88
2022-09-02T06:59:02.401Z,7.60
2022-09-02T07:01:31.774Z,8.55
2022-09-02T07:04:17.763Z,8.65
2022-09-02T07:06:50.501Z,7.20
2022-09-02T07:09:22.331Z,7.10
2022-09-02T07:11:51.338Z,6.00
2022-09-02T07:14:20.217Z,6.30
2022-09-02T07:16:51.001Z,5.35
2022-09-02T07:19:20.759Z,4.85
2022-09-02T07:21:49.516Z,4.85
2022-09-02T07:24:17.903Z,5.47
2022-09-02T07:26:45.337Z,5.00
2022-09-02T07:29:12.897Z,4.60
2022-09-02T07:31:42.436Z,4.75
2022-09-02T07:34:10.082Z,4.57
2022-09-02T07:36:38.503Z,3.63
2022-09-02T07:39:08.488Z,3.15
2022-09-02T07:41:36.383Z,3.65
2022-09-02T07:44:04.463Z,3.17
2022-09-02T07:46:32.267Z,3.95
2022-09-02T07:49:00.507Z,4.18
2022-09-02T07:51:27.714Z,4.22
2022-09-02T07:53:58.121Z,4.10
2022-09-02T07:56:25.059Z,3.85
2022-09-02T07:58:52.441Z,3.45
2022-09-02T08:01:23.425Z,4.25
2022-09-02T08:03:50.936Z,3.50
2022-09-02T08:06:27.756Z,4.22
2022-09-02T08:09:06.955Z,3.90
2022-09-02T08:11:39.325Z,3.80
2022-09-02T08:14:09.712Z,3.35
2022-09-02T08:16:39.511Z,3.45
2022-09-02T08:19:08.370Z,3.45
2022-09-02T08:21:35.622Z,3.70
2022-09-02T08:24:02.937Z,4.00
2022-09-02T08:26:30.191Z,3.80
2022-09-02T08:28:57.124Z,3.70
2022-09-02T08:31:23.988Z,3.33
2022-09-02T08:33:50.885Z,2.55
2022-09-02T08:36:17.858Z,3.15
2022-09-02T08:38:45.041Z,3.00
2022-09-02T08:41:20.982Z,2.78
2022-09-02T08:43:50.152Z,2.65
2022-09-02T08:46:18.805Z,3.20
2022-09-02T08:48:53.200Z,2.65
2022-09-02T08:51:37.707Z,2.85
2022-09-02T08:54:20.638Z,2.72
2022-09-02T08:56:48.702Z,2.67
2022-09-02T08:59:22.594Z,2.10
2022-09-02T09:02:12.541Z,2.78
2022-09-02T09:05:01.031Z,1.80
2022-09-02T09:07:46.981Z,1.70
2022-09-02T09:10:18.355Z,1.63
2022-09-02T09:13:15.242Z,1.73
2022-09-02T09:16:10.090Z,2.20
2022-09-02T09:18:44.599Z,2.53
2022-09-02T09:21:12.182Z,2.80
2022-09-02T09:23:40.094Z,2.10
2022-09-02T09:26:08.344Z,2.47
2022-09-02T09:28:44.000Z,2.63
2022-09-02T09:31:15.014Z,2.33
2022-09-02T09:33:59.620Z,2.40
2022-09-02T09:36:54.403Z,2.40
2022-09-02T09:39:27.486Z,2.30
2022-09-02T09:42:02.945Z,2.35
2022-09-02T09:44:40.989Z,2.80
2022-09-02T09:47:13.628Z,2.70
2022-09-02T09:49:44.245Z,2.70
2022-09-02T09:52:11.066Z,3.15
2022-09-02T09:54:38.883Z,2.67
2022-09-02T09:57:21.623Z,2.80
2022-09-02T09:59:50.019Z,2.83
2022-09-02T10:02:26.086Z,2.65
2022-09-02T10:05:10.887Z,2.65
2022-09-02T10:07:41.102Z,3.10
2022-09-02T10:10:19.818Z,3.30
2022-09-02T10:12:48.515Z,3.40
2022-09-02T10:15:21.777Z,3.50
2022-09-02T10:17:57.095Z,4.07
2022-09-02T10:21:11.419Z,3.63
2022-09-02T10:23:47.520Z,3.67
2022-09-02T10:26:36.412Z,4.28
2022-09-02T10:29:35.441Z,3.85
2022-09-02T10:32:32.357Z,4.32
2022-09-02T10:35:21.140Z,3.50
2022-09-02T10:38:06.221Z,4.95
2022-09-02T10:41:15.424Z,4.37
2022-09-02T10:43:42.171Z,4.68
2022-09-02T10:46:12.465Z,5.38
2022-09-02T10:48:51.162Z,4.95
2022-09-02T10:51:27.096Z,5.50
2022-09-02T10:54:26.885Z,5.03
2022-09-02T10:57:03.216Z,5.03
2022-09-02T10:59:40.572Z,5.43
2022-09-02T11:02:27.598Z,5.82
2022-09-02T11:05:03.913Z,5.75
2022-09-02T11:07:41.105Z,6.60
2022-09-02T11:10:15.954Z,8.02
2022-09-02T11:12:52.463Z,7.15
2022-09-02T11:15:27.161Z,6.07
2022-09-02T11:18:04.033Z,5.90
2022-09-02T11:20:41.997Z,6.85
2022-09-02T11:23:18.413Z,6.32
2022-09-02T11:26:10.077Z,6.47
2022-09-02T11:28:43.447Z,6.53
2022-09-02T11:31:21.486Z,6.82
2022-09-02T11:36:38.688Z,6.25
2022-09-02T11:39:11.524Z,6.95
2022-09-02T11:41:41.208Z,6.50
2022-09-02T11:44:11.278Z,6.82
2022-09-02T11:47:04.653Z,6.20
2022-09-02T11:49:56.308Z,7.18
2022-09-02T11:53:07.986Z,7.53
2022-09-02T11:55:38.728Z,7.30
2022-09-02T11:58:05.610Z,7.95
2022-09-02T12:00:55.756Z,7.43
2022-09-02T12:03:52.138Z,7.43
2022-09-02T12:06:20.271Z,6.50
2022-09-02T12:08:48.847Z,7.60
2022-09-02T12:11:42.255Z,6.97
2022-09-02T12:14:13.659Z,7.50
2022-09-02T12:17:02.642Z,6.45
2022-09-02T12:19:42.648Z,8.48
2022-09-02T12:22:15.764Z,7.18
2022-09-02T12:24:55.383Z,7.47
2022-09-02T12:27:36.787Z,7.65
2022-09-02T12:30:10.101Z,8.23
2022-09-02T12:32:52.361Z,8.00
2022-09-02T12:35:40.846Z,7.65
2022-09-02T12:38:10.484Z,7.72
2022-09-02T12:41:12.360Z,7.40
2022-09-02T12:43:44.633Z,7.45
2022-09-02T12:46:17.617Z,7.25
2022-09-02T12:49:14.764Z,8.50
2022-09-02T12:52:11.171Z,8.27
2022-09-02T12:57:19.219Z,8.15
2022-09-02T12:59:47.584Z,9.23
2022-09-02T13:02:33.190Z,8.35
2022-09-02T13:05:06.546Z,8.32
2022-09-02T13:08:10.912Z,8.35
2022-09-02T13:11:28.336Z,9.70
2022-09-02T13:14:15.011Z,9.13
2022-09-02T13:17:19.169Z,9.00
2022-09-02T13:20:39.286Z,8.70
2022-09-02T13:23:31.634Z,8.23
2022-09-02T13:26:49.231Z,8.68
2022-09-02T13:29:36.233Z,8.73
2022-09-02T13:32:10.284Z,8.60
2022-09-02T13:34:44.768Z,8.50
2022-09-02T13:37:33.649Z,8.67
2022-09-02T13:40:06.569Z,9.70
2022-09-02T13:42:33.627Z,9.50
2022-09-02T13:45:19.063Z,9.15
2022-09-02T13:47:49.445Z,10.02
2022-09-02T13:50:20.120Z,9.70
2022-09-02T13:55:43.620Z,9.65
2022-09-02T13:58:32.201Z,9.77
2022-09-02T14:01:19.281Z,9.45
2022-09-02T14:03:52.204Z,10.02
2022-09-02T14:06:23.551Z,9.82
2022-09-02T14:08:58.654Z,9.40
2022-09-02T14:11:27.579Z,10.27
2022-09-02T14:13:56.298Z,9.27
2022-09-02T14:16:37.142Z,9.75
2022-09-02T14:19:22.692Z,9.75
2022-09-02T14:21:57.937Z,9.73
2022-09-02T14:24:27.999Z,10.45
2022-09-02T14:26:59.805Z,9.50
2022-09-02T14:29:29.951Z,9.98
2022-09-02T14:32:13.589Z,10.20
2022-09-02T14:34:45.767Z,9.40
2022-09-02T14:37:28.649Z,10.15
2022-09-02T14:40:13.767Z,10.02
2022-09-02T14:42:48.709Z,9.23
2022-09-02T14:45:29.470Z,9.82
2022-09-02T14:47:59.172Z,9.45
2022-09-02T14:50:36.634Z,9.93
2022-09-02T14:53:09.265Z,9.93
2022-09-02T14:55:52.353Z,10.00
2022-09-02T14:58:20.904Z,9.65
2022-09-02T15:00:56.651Z,9.32
2022-09-02T15:03:24.185Z,7.95
2022-09-02T15:05:52.342Z,9.25
2022-09-02T15:08:19.609Z,8.85
2022-09-02T15:10:46.876Z,8.52
2022-09-02T15:13:35.461Z,10.30
2022-09-02T15:16:03.193Z,9.35
2022-09-02T15:18:30.278Z,10.02
2022-09-02T15:20:57.651Z,8.82
2022-09-02T15:23:24.991Z,9.10
2022-09-02T15:25:53.931Z,8.50
2022-09-02T15:28:21.201Z,8.55
2022-09-02T15:30:48.179Z,8.32
2022-09-02T15:33:16.806Z,8.32
2022-09-02T15:35:45.482Z,7.97
2022-09-02T15:38:12.947Z,6.78
2022-09-02T15:40:39.806Z,7.75
2022-09-02T15:43:06.675Z,6.72
2022-09-02T15:45:33.662Z,6.60
2022-09-02T15:48:00.540Z,7.65
2022-09-02T15:50:32.036Z,6.90
2022-09-02T15:52:58.877Z,6.88
2022-09-02T15:55:29.335Z,7.80
2022-09-02T15:57:56.713Z,7.63
2022-09-02T16:00:27.553Z,7.40
2022-09-02T16:02:56.920Z,6.80
2022-09-02T16:05:24.292Z,8.07
2022-09-02T16:07:54.760Z,7.93
2022-09-02T16:10:21.568Z,7.70
2022-09-02T16:12:48.808Z,7.35
2022-09-02T16:15:15.871Z,6.82
2022-09-02T16:17:42.738Z,7.75
2022-09-02T16:20:09.904Z,8.68
2022-09-02T16:22:37.419Z,7.22
2022-09-02T16:25:04.543Z,6.80
2022-09-02T16:27:49.799Z,8.35
2022-09-02T16:30:16.669Z,8.07
2022-09-02T16:32:44.504Z,7.70
2022-09-02T16:35:11.408Z,7.32
2022-09-02T16:37:38.191Z,8.00
2022-09-02T16:40:05.837Z,7.55
2022-09-02T16:42:37.380Z,7.50
2022-09-02T16:45:05.583Z,8.85
2022-09-02T16:47:32.420Z,7.60
2022-09-02T16:49:59.255Z,9.35
2022-09-02T16:52:26.044Z,7.80
2022-09-02T16:54:52.845Z,7.90
2022-09-02T16:57:19.759Z,7.40
2022-09-02T16:59:46.615Z,7.78
2022-09-02T17:02:13.454Z,7.15
2022-09-02T17:04:40.352Z,7.70
2022-09-02T17:07:08.019Z,9.75
2022-09-02T17:09:35.470Z,11.18
2022-09-02T17:12:02.501Z,11.65
2022-09-02T17:14:29.332Z,11.82
2022-09-02T17:16:56.456Z,11.60
2022-09-02T17:19:27.174Z,14.25
2022-09-02T17:21:56.985Z,15.15
2022-09-02T17:24:27.799Z,15.27
2022-09-02T17:26:55.992Z,15.55
2022-09-02T17:32:14.761Z,16.80
2022-09-02T17:34:41.636Z,17.25
2022-09-02T17:37:08.489Z,19.30
2022-09-02T17:39:35.472Z,15.68
2022-09-02T17:42:06.980Z,16.08
2022-09-02T17:44:38.666Z,16.55
2022-09-02T17:47:09.410Z,17.35
2022-09-02T17:49:38.507Z,16.92
2022-09-02T17:52:07.642Z,17.10
2022-09-02T17:54:38.491Z,16.88
2022-09-02T17:57:25.562Z,18.27
2022-09-02T18:00:01.449Z,19.10
2022-09-02T18:03:02.008Z,18.77
2022-09-02T18:05:42.957Z,19.40
2022-09-02T18:08:31.791Z,19.38
2022-09-02T18:11:05.389Z,20.15
2022-09-02T18:13:40.102Z,19.95
2022-09-02T18:16:23.087Z,19.73
2022-09-02T18:19:16.369Z,20.48
2022-09-02T18:22:03.323Z,18.73
2022-09-02T18:24:53.067Z,18.42
2022-09-02T18:27:26.567Z,19.85
2022-09-02T18:30:17.043Z,20.60
2022-09-02T18:33:20.246Z,19.67
2022-09-02T18:36:00.291Z,20.85
2022-09-02T18:38:40.025Z,19.17
2022-09-02T18:41:16.880Z,19.42
2022-09-02T18:43:59.651Z,19.10
2022-09-02T18:46:32.057Z,18.80
2022-09-02T18:49:03.796Z,19.30
2022-09-02T18:51:41.007Z,19.17
2022-09-02T18:55:01.747Z,21.92
2022-09-02T18:57:35.631Z,20.77
2022-09-02T19:00:07.184Z,21.38
2022-09-02T19:02:45.821Z,21.85
2022-09-02T19:05:17.042Z,22.88
2022-09-02T19:08:04.074Z,22.33
2022-09-02T19:10:31.335Z,23.05
2022-09-02T19:13:02.684Z,23.73
2022-09-02T19:15:29.485Z,26.67
2022-09-02T19:17:56.536Z,23.83
2022-09-02T19:20:23.943Z,24.27
2022-09-02T19:22:53.880Z,25.65
2022-09-02T19:25:25.436Z,27.02
2022-09-02T19:27:54.837Z,25.88
2022-09-02T19:30:22.939Z,26.48
2022-09-02T19:32:52.778Z,26.30
2022-09-02T19:35:22.997Z,25.83
2022-09-02T19:37:53.280Z,25.27
2022-09-02T19:40:31.048Z,26.40
2022-09-02T19:42:57.909Z,27.42
2022-09-02T19:45:29.088Z,26.92
2022-09-02T19:48:06.909Z,26.15
2022-09-02T19:50:37.266Z,25.48
2022-09-02T19:53:04.217Z,26.30
2022-09-02T19:55:33.669Z,27.13
2022-09-02T19:58:00.620Z,25.50
2022-09-02T20:00:27.985Z,25.58
2022-09-02T20:02:55.383Z,25.70
2022-09-02T20:05:24.463Z,26.25
2022-09-02T20:07:51.875Z,24.85
2022-09-02T20:10:20.286Z,24.48
2022-09-02T20:12:47.587Z,25.98
2022-09-02T20:15:15.002Z,27.38
2022-09-02T20:17:42.833Z,26.17
2022-09-02T20:20:17.869Z,24.65
2022-09-02T20:22:48.048Z,24.33
2022-09-02T20:25:15.329Z,24.60
2022-09-02T20:27:48.350Z,25.15
2022-09-02T20:30:17.548Z,24.17
2022-09-02T20:33:05.390Z,24.17
2022-09-02T20:35:44.511Z,26.30
2022-09-02T20:38:26.561Z,23.45
2022-09-02T20:41:20.398Z,24.73
2022-09-02T20:44:04.803Z,23.77
2022-09-02T20:47:02.667Z,21.77
2022-09-02T20:49:54.104Z,20.50
2022-09-02T20:52:50.776Z,20.05
2022-09-02T20:57:48.407Z,19.30
2022-09-02T21:00:21.846Z,20.45
2022-09-02T21:02:51.263Z,18.17
2022-09-02T21:05:24.050Z,19.20
2022-09-02T21:08:05.550Z,21.65
2022-09-02T21:10:47.906Z,19.55
2022-09-02T21:13:35.518Z,16.95
2022-09-02T21:16:12.501Z,17.05
2022-09-02T21:18:46.370Z,16.33
2022-09-02T21:21:23.385Z,16.50
2022-09-02T21:23:56.523Z,14.25
2022-09-02T21:26:37.148Z,17.20
2022-09-02T21:29:26.156Z,16.58
2022-09-02T21:32:21.982Z,15.45
2022-09-02T21:35:00.883Z,14.57
2022-09-02T21:37:32.027Z,13.27
2022-09-02T21:40:06.928Z,14.73
2022-09-02T21:42:39.430Z,14.50
2022-09-02T21:45:17.769Z,10.18
2022-09-02T21:48:15.527Z,10.65
2022-09-02T21:51:01.682Z,9.00
2022-09-02T21:53:31.296Z,6.85
2022-09-02T21:56:21.286Z,7.68
2022-09-02T21:59:15.122Z,7.30
2022-09-02T22:01:55.806Z,7.32
2022-09-02T22:04:46.648Z,7.53
2022-09-02T22:07:19.105Z,6.68
2022-09-02T22:09:59.685Z,7.10
2022-09-02T22:12:26.734Z,6.68
2022-09-02T22:15:23.739Z,6.50
2022-09-02T22:17:55.484Z,6.32
2022-09-02T22:20:39.125Z,6.93
2022-09-02T22:23:17.587Z,6.60
2022-09-02T22:25:48.743Z,6.05
2022-09-02T22:28:21.227Z,6.60
2022-09-02T22:30:55.586Z,6.63
2022-09-02T22:33:27.853Z,6.07
2022-09-02T22:36:06.436Z,6.45
2022-09-02T22:38:41.361Z,6.32
2022-09-02T22:41:59.355Z,6.60
2022-09-02T22:48:26.153Z,6.00
2022-09-02T22:55:17.067Z,5.47
2022-09-02T23:35:24.243Z,6.47
2022-09-02T23:45:21.934Z,6.65
